Time;durP1;ratioP1;P1;durP2;ratioP2;P2;SDS_P1;SDS_P2;PMS_P1;PMS_P2;Temp;Humidity;BMP_temperature;BMP_pressure;BME280_temperature;BME280_humidity;BME280_pressure;Samples;Min_cycle;Max_cycle;Signal;HPM_P1;HPM_P2
2022/07/18 00:00:08;;;;;;;3.20;2.30;;;;;;;;;;5081565;28;20036;-77
2022/07/18 00:02:56;;;;;;;4.47;2.47;;;;;;;;;;5080882;28;20037;-77
2022/07/18 00:05:41;;;;;;;7.50;2.50;;;;;;;;;;5074408;28;20470;-76
2022/07/18 00:08:29;;;;;;;5.22;2.63;;;;;;;;;;5080360;28;20154;-76
2022/07/18 00:11:14;;;;;;;6.05;2.80;;;;;;;;;;5074930;28;20048;-77
2022/07/18 00:14:00;;;;;;;2.72;2.47;;;;;;;;;;5081125;28;20044;-77
2022/07/18 00:16:45;;;;;;;5.35;2.13;;;;;;;;;;5081317;28;20478;-78
2022/07/18 00:19:31;;;;;;;4.18;2.40;;;;;;;;;;5074576;28;20422;-77
2022/07/18 00:22:16;;;;;;;4.15;2.40;;;;;;;;;;5074081;28;20048;-76
2022/07/18 00:25:03;;;;;;;8.38;2.35;;;;;;;;;;5073320;28;20052;-78
2022/07/18 00:27:48;;;;;;;4.55;2.15;;;;;;;;;;5074602;28;20393;-77
2022/07/18 00:30:34;;;;;;;6.40;2.00;;;;;;;;;;5074270;28;20045;-76
2022/07/18 00:33:20;;;;;;;1.90;1.65;;;;;;;;;;5080739;28;20036;-76
2022/07/18 00:36:05;;;;;;;6.75;2.20;;;;;;;;;;5074187;28;20045;-76
2022/07/18 00:38:52;;;;;;;6.40;2.17;;;;;;;;;;5074194;28;20107;-77
2022/07/18 00:41:48;;;;;;;3.15;2.05;;;;;;;;;;5066105;28;20408;-76
2022/07/18 00:44:36;;;;;;;2.97;1.90;;;;;;;;;;5074157;28;20056;-77
2022/07/18 00:47:30;;;;;;;2.20;1.77;;;;;;;;;;5074625;28;20048;-80
2022/07/18 00:50:16;;;;;;;4.05;2.10;;;;;;;;;;5082043;28;20041;-82
2022/07/18 00:53:02;;;;;;;4.75;1.90;;;;;;;;;;5080913;28;20044;-82
2022/07/18 00:55:47;;;;;;;6.47;2.50;;;;;;;;;;5080428;28;20397;-81
2022/07/18 00:58:33;;;;;;;5.95;3.13;;;;;;;;;;5073674;28;20040;-79
2022/07/18 01:04:23;;;;;;;7.43;2.40;;;;;;;;;;5073639;28;20041;-79
2022/07/18 01:07:11;;;;;;;3.90;2.30;;;;;;;;;;5080095;28;20049;-78
2022/07/18 01:09:56;;;;;;;7.97;2.42;;;;;;;;;;5073528;28;20398;-78
2022/07/18 01:12:42;;;;;;;4.57;2.33;;;;;;;;;;5080070;28;20052;-78
2022/07/18 01:15:27;;;;;;;6.15;2.42;;;;;;;;;;5073485;28;20048;-78
2022/07/18 01:18:13;;;;;;;5.47;2.10;;;;;;;;;;5073691;28;20398;-79
2022/07/18 01:20:58;;;;;;;4.43;2.30;;;;;;;;;;5073498;28;20048;-79
2022/07/18 01:23:44;;;;;;;4.30;2.88;;;;;;;;;;5073505;28;20486;-80
2022/07/18 01:26:30;;;;;;;4.72;3.72;;;;;;;;;;5073636;28;20049;-79
2022/07/18 01:29:15;;;;;;;5.25;3.22;;;;;;;;;;5073788;28;20041;-82
2022/07/18 01:32:05;;;;;;;7.03;2.78;;;;;;;;;;5073350;28;20473;-82
2022/07/18 01:34:50;;;;;;;3.95;2.30;;;;;;;;;;5073098;28;20494;-81
2022/07/18 01:37:36;;;;;;;5.82;2.35;;;;;;;;;;5073689;28;20052;-81
2022/07/18 01:40:23;;;;;;;3.15;2.10;;;;;;;;;;5073349;28;20508;-81
2022/07/18 01:43:08;;;;;;;5.63;2.25;;;;;;;;;;5073696;28;20048;-81
2022/07/18 01:45:54;;;;;;;5.57;2.10;;;;;;;;;;5073810;28;20040;-81
2022/07/18 01:48:40;;;;;;;3.45;2.35;;;;;;;;;;5077041;28;20037;-82
2022/07/18 01:51:26;;;;;;;4.18;2.42;;;;;;;;;;5077639;28;20052;-81
2022/07/18 01:54:11;;;;;;;2.78;2.22;;;;;;;;;;5077505;28;20569;-81
2022/07/18 01:56:58;;;;;;;5.65;3.40;;;;;;;;;;5077296;28;20053;-81
2022/07/18 01:59:44;;;;;;;33.50;20.58;;;;;;;;;;5076033;28;20056;-80
2022/07/18 02:02:29;;;;;;;58.20;38.42;;;;;;;;;;5077133;28;20398;-80
2022/07/18 02:05:15;;;;;;;30.92;21.67;;;;;;;;;;5076959;28;20056;-80
2022/07/18 02:08:00;;;;;;;10.98;6.97;;;;;;;;;;5076643;28;20148;-81
2022/07/18 02:10:46;;;;;;;5.50;3.38;;;;;;;;;;5083363;28;20478;-81
2022/07/18 02:13:31;;;;;;;5.53;2.95;;;;;;;;;;5076688;28;20044;-81
2022/07/18 02:16:17;;;;;;;55.88;37.85;;;;;;;;;;5077076;28;20053;-81
2022/07/18 02:19:02;;;;;;;27.40;19.02;;;;;;;;;;5076781;28;20045;-81
2022/07/18 02:21:48;;;;;;;14.07;9.77;;;;;;;;;;5076710;28;20052;-80
2022/07/18 02:24:33;;;;;;;3.15;2.85;;;;;;;;;;5076860;28;20053;-80
2022/07/18 02:27:19;;;;;;;4.38;2.38;;;;;;;;;;5083005;28;20052;-80
2022/07/18 02:30:07;;;;;;;4.15;2.80;;;;;;;;;;5076600;28;20049;-80
2022/07/18 02:32:52;;;;;;;3.28;2.50;;;;;;;;;;5076849;28;20041;-80
2022/07/18 02:35:38;;;;;;;6.78;1.98;;;;;;;;;;5076319;28;20048;-80
2022/07/18 02:38:24;;;;;;;4.95;2.13;;;;;;;;;;5076432;28;20052;-80
2022/07/18 02:41:09;;;;;;;3.85;2.17;;;;;;;;;;5076040;28;20048;-81
2022/07/18 02:43:55;;;;;;;3.13;2.00;;;;;;;;;;5076092;28;20044;-80
2022/07/18 02:46:41;;;;;;;4.32;1.90;;;;;;;;;;5076211;28;20040;-80
2022/07/18 02:49:26;;;;;;;3.75;1.50;;;;;;;;;;5082734;28;20040;-81
2022/07/18 02:52:11;;;;;;;4.13;2.10;;;;;;;;;;5081811;28;20048;-80
2022/07/18 02:54:56;;;;;;;2.90;1.85;;;;;;;;;;5075971;28;20048;-80
2022/07/18 02:57:42;;;;;;;2.78;2.00;;;;;;;;;;5075571;28;20045;-82
2022/07/18 03:00:28;;;;;;;5.53;2.05;;;;;;;;;;5075980;28;20048;-82
2022/07/18 03:03:13;;;;;;;4.63;2.00;;;;;;;;;;5075947;28;20044;-80
2022/07/18 03:05:58;;;;;;;3.03;2.00;;;;;;;;;;5075907;28;20044;-79
2022/07/18 03:08:44;;;;;;;3.72;1.85;;;;;;;;;;5075760;28;20041;-79
2022/07/18 03:11:29;;;;;;;2.28;1.95;;;;;;;;;;5076176;28;20381;-80
2022/07/18 03:14:14;;;;;;;2.00;1.80;;;;;;;;;;5076089;28;20037;-80
2022/07/18 03:17:00;;;;;;;2.88;2.13;;;;;;;;;;5075722;28;20421;-80
2022/07/18 03:19:45;;;;;;;3.35;1.80;;;;;;;;;;5075729;28;20374;-82
2022/07/18 03:22:33;;;;;;;3.40;2.00;;;;;;;;;;5075503;28;20048;-81
2022/07/18 03:25:17;;;;;;;5.22;2.00;;;;;;;;;;5075366;28;20041;-80
2022/07/18 03:28:02;;;;;;;4.72;2.42;;;;;;;;;;5075595;28;20056;-80
2022/07/18 03:30:48;;;;;;;4.43;2.42;;;;;;;;;;5082213;28;20045;-81
2022/07/18 03:33:33;;;;;;;4.93;2.28;;;;;;;;;;5075673;28;20048;-81
2022/07/18 03:36:19;;;;;;;5.00;2.50;;;;;;;;;;5075247;28;20052;-80
2022/07/18 03:39:06;;;;;;;4.78;2.33;;;;;;;;;;5075163;28;20053;-79
2022/07/18 03:41:52;;;;;;;4.95;2.22;;;;;;;;;;5075544;28;20390;-80
2022/07/18 03:44:37;;;;;;;5.30;2.42;;;;;;;;;;5075068;28;20044;-80
2022/07/18 03:47:22;;;;;;;4.25;2.15;;;;;;;;;;5074714;28;20045;-79
2022/07/18 03:50:08;;;;;;;9.77;2.53;;;;;;;;;;5075330;28;20417;-81
2022/07/18 03:52:54;;;;;;;8.82;2.90;;;;;;;;;;5075002;28;20044;-79
2022/07/18 03:55:39;;;;;;;4.60;2.60;;;;;;;;;;5081914;28;20048;-80
2022/07/18 03:58:25;;;;;;;7.72;2.78;;;;;;;;;;5056182;28;20053;-80
2022/07/18 04:01:11;;;;;;;9.88;2.75;;;;;;;;;;5054880;28;20033;-80
2022/07/18 04:03:57;;;;;;;2.92;2.05;;;;;;;;;;5054791;28;20041;-80
2022/07/18 04:06:42;;;;;;;8.27;2.13;;;;;;;;;;5054462;28;20041;-80
2022/07/18 04:09:28;;;;;;;2.60;1.90;;;;;;;;;;5054330;28;20044;-80
2022/07/18 04:12:14;;;;;;;5.75;2.30;;;;;;;;;;5054748;28;20045;-79
2022/07/18 04:14:59;;;;;;;22.33;9.07;;;;;;;;;;5053611;28;20049;-80
2022/07/18 04:17:45;;;;;;;85.20;38.83;;;;;;;;;;5054801;28;20049;-80
2022/07/18 04:20:31;;;;;;;52.75;27.50;;;;;;;;;;5061123;28;20045;-79
2022/07/18 04:23:18;;;;;;;23.45;12.43;;;;;;;;;;5054699;28;20049;-80
2022/07/18 04:26:04;;;;;;;24.55;14.15;;;;;;;;;;5053801;28;20045;-80
2022/07/18 04:28:49;;;;;;;22.15;10.68;;;;;;;;;;5054280;28;20040;-80
2022/07/18 04:31:35;;;;;;;14.60;9.38;;;;;;;;;;5054590;28;20056;-79
2022/07/18 04:34:20;;;;;;;18.83;10.00;;;;;;;;;;5054213;28;20045;-80
2022/07/18 04:37:06;;;;;;;11.13;6.80;;;;;;;;;;5061029;28;20041;-80
2022/07/18 04:39:50;;;;;;;10.25;4.75;;;;;;;;;;5060874;28;20045;-81
2022/07/18 04:42:37;;;;;;;8.85;5.00;;;;;;;;;;5054079;28;20045;-80
2022/07/18 04:45:23;;;;;;;9.55;4.22;;;;;;;;;;5054272;28;20049;-80
2022/07/18 04:48:08;;;;;;;6.13;3.30;;;;;;;;;;5053948;28;20053;-80
2022/07/18 04:50:55;;;;;;;5.70;2.97;;;;;;;;;;5053934;28;20049;-80
2022/07/18 04:53:40;;;;;;;6.35;3.20;;;;;;;;;;5060904;28;20037;-80
2022/07/18 04:56:26;;;;;;;4.80;2.60;;;;;;;;;;5060525;28;20045;-81
2022/07/18 04:59:11;;;;;;;7.20;2.45;;;;;;;;;;5060556;28;20041;-80
2022/07/18 05:01:58;;;;;;;4.10;2.33;;;;;;;;;;5053600;28;20045;-80
2022/07/18 05:04:42;;;;;;;3.85;2.10;;;;;;;;;;5053648;28;20037;-81
2022/07/18 05:07:27;;;;;;;3.30;2.13;;;;;;;;;;5053725;28;20037;-80
2022/07/18 05:10:14;;;;;;;5.68;2.10;;;;;;;;;;5053314;28;20053;-80
2022/07/18 05:13:00;;;;;;;2.67;2.15;;;;;;;;;;5060201;28;20048;-80
2022/07/18 05:15:45;;;;;;;6.93;2.00;;;;;;;;;;5053479;28;20494;-80
2022/07/18 05:18:30;;;;;;;7.15;2.10;;;;;;;;;;5053560;28;20048;-79
2022/07/18 05:21:16;;;;;;;3.92;2.08;;;;;;;;;;5053398;28;20108;-80
2022/07/18 05:24:02;;;;;;;3.53;1.88;;;;;;;;;;5053281;28;20045;-79
2022/07/18 05:26:48;;;;;;;9.18;2.42;;;;;;;;;;5053472;28;20049;-77
2022/07/18 05:29:33;;;;;;;5.22;2.63;;;;;;;;;;5053112;28;20040;-77
2022/07/18 05:32:18;;;;;;;4.25;2.15;;;;;;;;;;5059356;28;20421;-77
2022/07/18 05:35:04;;;;;;;3.90;2.33;;;;;;;;;;5053144;28;20037;-76
2022/07/18 05:37:50;;;;;;;6.38;2.20;;;;;;;;;;5059877;28;20061;-76
2022/07/18 05:40:35;;;;;;;5.88;2.00;;;;;;;;;;5053398;28;20490;-76
2022/07/18 05:43:21;;;;;;;5.03;2.22;;;;;;;;;;5053078;28;20041;-77
2022/07/18 05:46:06;;;;;;;3.05;1.83;;;;;;;;;;5052949;28;20037;-76
2022/07/18 05:48:51;;;;;;;4.45;2.00;;;;;;;;;;5053595;28;20045;-77
2022/07/18 05:51:37;;;;;;;5.93;2.20;;;;;;;;;;5052895;28;20426;-77
2022/07/18 05:54:22;;;;;;;6.28;1.90;;;;;;;;;;5052887;28;20044;-76
2022/07/18 05:57:08;;;;;;;3.78;1.88;;;;;;;;;;5052650;28;20037;-77
2022/07/18 05:59:54;;;;;;;2.88;1.75;;;;;;;;;;5053120;28;20040;-77
2022/07/18 06:02:39;;;;;;;4.22;1.33;;;;;;;;;;5052796;28;20053;-77
2022/07/18 06:05:24;;;;;;;2.65;1.60;;;;;;;;;;5052920;28;20041;-78
2022/07/18 06:08:10;;;;;;;5.35;2.30;;;;;;;;;;5052712;28;20045;-75
2022/07/18 06:10:56;;;;;;;7.03;2.70;;;;;;;;;;5052435;28;20036;-76
2022/07/18 06:13:42;;;;;;;4.60;2.20;;;;;;;;;;5052899;28;20045;-77
2022/07/18 06:16:27;;;;;;;6.65;2.40;;;;;;;;;;5052251;28;20045;-78
2022/07/18 06:19:13;;;;;;;4.25;1.90;;;;;;;;;;5059708;28;20049;-78
2022/07/18 06:21:59;;;;;;;8.40;2.10;;;;;;;;;;5058777;28;20490;-76
2022/07/18 06:24:45;;;;;;;4.40;1.80;;;;;;;;;;5051850;28;20053;-76
2022/07/18 06:27:30;;;;;;;7.57;1.80;;;;;;;;;;5059286;28;20498;-77
2022/07/18 06:30:16;;;;;;;4.63;1.77;;;;;;;;;;5052870;28;20049;-77
2022/07/18 06:33:05;;;;;;;3.83;1.90;;;;;;;;;;5054733;28;20045;-77
2022/07/18 06:35:51;;;;;;;7.15;2.00;;;;;;;;;;5056226;28;20486;-77
2022/07/18 06:38:39;;;;;;;5.50;1.80;;;;;;;;;;5062403;28;20046;-78
2022/07/18 06:41:24;;;;;;;4.88;1.88;;;;;;;;;;5056491;28;20478;-78
2022/07/18 06:44:10;;;;;;;4.47;1.92;;;;;;;;;;5056115;28;20044;-78
2022/07/18 06:46:59;;;;;;;10.18;2.22;;;;;;;;;;5062016;28;20037;-77
2022/07/18 06:49:44;;;;;;;4.82;1.90;;;;;;;;;;5062957;28;20037;-76
2022/07/18 06:52:29;;;;;;;7.47;1.98;;;;;;;;;;5055581;28;20398;-76
2022/07/18 06:55:15;;;;;;;7.47;2.10;;;;;;;;;;5063187;28;20049;-79
2022/07/18 06:58:01;;;;;;;6.80;1.88;;;;;;;;;;5056053;28;20041;-79
2022/07/18 07:00:46;;;;;;;5.85;1.98;;;;;;;;;;5060813;28;20041;-79
2022/07/18 07:03:31;;;;;;;5.97;2.00;;;;;;;;;;5055827;28;20041;-79
2022/07/18 07:06:16;;;;;;;7.40;2.42;;;;;;;;;;5055230;28;20395;-79
2022/07/18 07:09:02;;;;;;;2.58;1.67;;;;;;;;;;5056005;28;20398;-79
2022/07/18 07:11:48;;;;;;;5.55;1.88;;;;;;;;;;5062935;22;20045;-79
2022/07/18 07:14:33;;;;;;;2.65;1.65;;;;;;;;;;5055685;28;20057;-79
2022/07/18 07:17:19;;;;;;;10.25;2.08;;;;;;;;;;5055750;28;20045;-80
2022/07/18 07:20:06;;;;;;;6.05;1.90;;;;;;;;;;5055456;28;20048;-80
2022/07/18 07:22:54;;;;;;;5.53;1.90;;;;;;;;;;5055691;28;20498;-79
2022/07/18 07:25:39;;;;;;;3.60;2.03;;;;;;;;;;5055433;28;20037;-78
2022/07/18 07:28:24;;;;;;;4.78;1.70;;;;;;;;;;5062134;28;20052;-78
2022/07/18 07:31:09;;;;;;;7.65;2.20;;;;;;;;;;5055612;28;20045;-79
2022/07/18 07:33:54;;;;;;;6.03;2.03;;;;;;;;;;5055022;28;20041;-79
2022/07/18 07:36:40;;;;;;;5.07;1.50;;;;;;;;;;5056289;28;20490;-79
2022/07/18 07:39:26;;;;;;;4.82;1.60;;;;;;;;;;5055281;28;20041;-78
2022/07/18 07:42:11;;;;;;;7.68;1.85;;;;;;;;;;5054284;28;20033;-78
2022/07/18 07:44:57;;;;;;;6.15;1.60;;;;;;;;;;5055001;28;20041;-78
2022/07/18 07:47:43;;;;;;;5.35;1.70;;;;;;;;;;5054907;28;20044;-78
2022/07/18 07:50:29;;;;;;;5.35;1.90;;;;;;;;;;5061113;28;20049;-79
2022/07/18 07:53:14;;;;;;;5.90;1.77;;;;;;;;;;5040336;28;20390;-78
2022/07/18 07:55:59;;;;;;;6.43;1.80;;;;;;;;;;5054487;28;20049;-79
2022/07/18 07:58:48;;;;;;;7.95;2.10;;;;;;;;;;5054586;28;20048;-79
2022/07/18 08:01:33;;;;;;;8.40;3.95;;;;;;;;;;5054844;28;20386;-79
2022/07/18 08:04:19;;;;;;;16.50;5.70;;;;;;;;;;5060530;28;20041;-79
2022/07/18 08:07:04;;;;;;;7.60;4.40;;;;;;;;;;5061444;22;20403;-79
2022/07/18 08:09:50;;;;;;;7.55;5.20;;;;;;;;;;5061251;28;20041;-80
2022/07/18 08:12:36;;;;;;;396.73;327.98;;;;;;;;;;5054932;28;20045;-79
2022/07/18 08:15:21;;;;;;;3.42;2.20;;;;;;;;;;5054334;28;20045;-78
2022/07/18 08:18:06;;;;;;;24.85;15.50;;;;;;;;;;5054526;28;20052;-78
2022/07/18 08:20:52;;;;;;;9.18;4.97;;;;;;;;;;5054486;28;20045;-79
2022/07/18 08:23:38;;;;;;;10.40;6.18;;;;;;;;;;5054176;28;20061;-80
2022/07/18 08:26:23;;;;;;;5.18;2.10;;;;;;;;;;5054177;28;20133;-79
2022/07/18 08:29:09;;;;;;;2.53;1.20;;;;;;;;;;5053526;28;20482;-80
2022/07/18 08:31:54;;;;;;;3.58;1.25;;;;;;;;;;5054117;28;20394;-80
2022/07/18 08:34:40;;;;;;;3.38;1.45;;;;;;;;;;5054179;28;20044;-78
2022/07/18 08:37:26;;;;;;;2.25;1.42;;;;;;;;;;5053884;28;20045;-79
2022/07/18 08:40:12;;;;;;;3.80;1.60;;;;;;;;;;5054112;28;20036;-79
2022/07/18 08:42:58;;;;;;;5.95;2.13;;;;;;;;;;5053845;28;20052;-81
2022/07/18 08:45:45;;;;;;;1.90;1.42;;;;;;;;;;5053960;28;20049;-81
2022/07/18 08:48:31;;;;;;;3.47;1.48;;;;;;;;;;5054006;28;20386;-81
2022/07/18 08:51:16;;;;;;;1.98;1.42;;;;;;;;;;5053053;28;20041;-82
2022/07/18 08:54:02;;;;;;;5.13;1.50;;;;;;;;;;5053602;28;20048;-82
2022/07/18 08:56:50;;;;;;;6.55;1.60;;;;;;;;;;5053761;28;20048;-81
2022/07/18 08:59:35;;;;;;;2.33;1.30;;;;;;;;;;5053283;28;20041;-82
2022/07/18 09:02:27;;;;;;;3.15;1.88;;;;;;;;;;5053790;28;20040;-82
2022/07/18 09:05:20;;;;;;;2.40;1.40;;;;;;;;;;5060624;28;20502;-76
2022/07/18 09:08:08;;;;;;;2.20;1.40;;;;;;;;;;5054802;28;20053;-76
2022/07/18 09:10:57;;;;;;;4.32;1.40;;;;;;;;;;5053677;28;20049;-77
2022/07/18 09:13:42;;;;;;;3.47;1.23;;;;;;;;;;5053213;28;20052;-76
2022/07/18 09:16:28;;;;;;;2.88;1.20;;;;;;;;;;5060075;28;20045;-77
2022/07/18 09:19:15;;;;;;;4.03;1.20;;;;;;;;;;5053634;28;20041;-76
2022/07/18 09:22:12;;;;;;;5.47;1.92;;;;;;;;;;5052791;28;20053;-76
2022/07/18 09:25:07;;;;;;;7.00;1.30;;;;;;;;;;5053222;28;20403;-75
2022/07/18 09:27:53;;;;;;;3.13;1.42;;;;;;;;;;5052606;28;20557;-77
2022/07/18 09:30:39;;;;;;;2.85;1.38;;;;;;;;;;5053207;28;20048;-76
2022/07/18 09:33:24;;;;;;;10.35;1.77;;;;;;;;;;5053655;28;20036;-76
2022/07/18 09:36:10;;;;;;;2.22;1.35;;;;;;;;;;5059386;28;20474;-77
2022/07/18 09:38:55;;;;;;;7.85;1.10;;;;;;;;;;5053262;28;20041;-78
2022/07/18 09:41:41;;;;;;;2.78;1.20;;;;;;;;;;5059523;28;20045;-76
2022/07/18 09:44:27;;;;;;;4.00;1.30;;;;;;;;;;5059858;28;20398;-76
2022/07/18 09:47:12;;;;;;;3.88;1.30;;;;;;;;;;5053049;28;20397;-77
2022/07/18 09:49:58;;;;;;;5.00;1.40;;;;;;;;;;5052512;28;20497;-77
2022/07/18 09:52:43;;;;;;;5.75;1.60;;;;;;;;;;5053181;28;20041;-76
2022/07/18 09:55:29;;;;;;;4.50;1.35;;;;;;;;;;5053140;28;20045;-77
2022/07/18 09:58:21;;;;;;;6.85;1.30;;;;;;;;;;5052770;28;20482;-76
2022/07/18 10:01:09;;;;;;;6.85;1.52;;;;;;;;;;5053011;28;20041;-76
2022/07/18 10:03:54;;;;;;;3.35;1.27;;;;;;;;;;5052482;28;20041;-77
2022/07/18 10:06:42;;;;;;;4.05;1.50;;;;;;;;;;5053635;28;20041;-77
2022/07/18 10:09:27;;;;;;;2.25;1.30;;;;;;;;;;5056939;28;20482;-77
2022/07/18 10:12:14;;;;;;;2.55;1.40;;;;;;;;;;5056131;28;20037;-77
2022/07/18 10:15:00;;;;;;;3.72;1.83;;;;;;;;;;5056933;28;20049;-76
2022/07/18 10:17:46;;;;;;;2.88;1.27;;;;;;;;;;5066996;22;20037;-76
2022/07/18 10:20:33;;;;;;;3.80;1.40;;;;;;;;;;5056820;28;20049;-77
2022/07/18 10:23:21;;;;;;;3.67;1.30;;;;;;;;;;5056702;28;20486;-77
2022/07/18 10:26:17;;;;;;;4.75;1.40;;;;;;;;;;5056079;28;20049;-76
2022/07/18 10:29:02;;;;;;;3.70;1.30;;;;;;;;;;5056516;28;20033;-77
2022/07/18 10:32:03;;;;;;;3.05;1.10;;;;;;;;;;5055790;28;20037;-77
2022/07/18 10:34:48;;;;;;;2.45;1.10;;;;;;;;;;5063384;28;20045;-76
2022/07/18 10:37:34;;;;;;;3.80;1.30;;;;;;;;;;5056217;28;20053;-76
2022/07/18 10:41:00;;;;;;;1.20;1.10;;;;;;;;;;5055765;28;20394;-77
2022/07/18 10:43:46;;;;;;;6.13;1.27;;;;;;;;;;5055486;28;20406;-77
2022/07/18 10:47:08;;;;;;;2.47;1.17;;;;;;;;;;5055440;28;20486;-77
2022/07/18 10:49:56;;;;;;;1.40;1.00;;;;;;;;;;4975977;28;20055;-79
2022/07/18 10:52:41;;;;;;;1.00;0.90;;;;;;;;;;5055468;28;20049;-77
2022/07/18 10:55:28;;;;;;;1.75;1.00;;;;;;;;;;5056059;28;20045;-76
2022/07/18 10:58:13;;;;;;;2.92;1.20;;;;;;;;;;5055846;28;20049;-76
2022/07/18 11:01:04;;;;;;;2.95;1.10;;;;;;;;;;5055353;28;20040;-76
2022/07/18 11:03:49;;;;;;;3.72;1.30;;;;;;;;;;5054083;28;20482;-77
2022/07/18 11:07:04;;;;;;;2.65;1.50;;;;;;;;;;5055611;28;20041;-77
2022/07/18 11:09:50;;;;;;;3.35;1.27;;;;;;;;;;5061995;28;20040;-76
2022/07/18 11:12:34;;;;;;;2.22;1.02;;;;;;;;;;5062142;22;20049;-76
2022/07/18 11:15:20;;;;;;;4.40;1.38;;;;;;;;;;5055807;28;20487;-76
2022/07/18 11:18:06;;;;;;;3.15;1.20;;;;;;;;;;5061978;28;20398;-79
2022/07/18 11:20:52;;;;;;;2.50;1.27;;;;;;;;;;5055299;28;20053;-75
2022/07/18 11:23:43;;;;;;;4.35;1.20;;;;;;;;;;5055476;28;20390;-76
2022/07/18 11:26:29;;;;;;;4.53;1.10;;;;;;;;;;5055054;28;20037;-76
2022/07/18 11:29:17;;;;;;;4.43;1.30;;;;;;;;;;5055119;28;20045;-76
2022/07/18 11:32:04;;;;;;;1.90;1.10;;;;;;;;;;5062145;28;20049;-76
2022/07/18 11:34:50;;;;;;;3.13;1.17;;;;;;;;;;5054586;28;20037;-76
2022/07/18 11:37:36;;;;;;;9.30;1.30;;;;;;;;;;5054978;28;20056;-77
2022/07/18 11:40:22;;;;;;;3.35;1.30;;;;;;;;;;5054978;28;20041;-76
2022/07/18 11:43:07;;;;;;;3.15;1.30;;;;;;;;;;5055047;28;20053;-77
2022/07/18 11:46:07;;;;;;;2.83;1.20;;;;;;;;;;5054495;28;20049;-76
2022/07/18 11:49:04;;;;;;;1.98;0.95;;;;;;;;;;5054675;28;20498;-75
2022/07/18 11:51:50;;;;;;;1.45;1.20;;;;;;;;;;5054214;28;20053;-75
2022/07/18 11:54:35;;;;;;;2.47;1.08;;;;;;;;;;5061532;28;20048;-75
2022/07/18 11:57:28;;;;;;;7.40;1.52;;;;;;;;;;5054984;28;20045;-76
2022/07/18 12:00:18;;;;;;;1.33;1.17;;;;;;;;;;5054265;28;20398;-75
2022/07/18 12:03:06;;;;;;;2.10;1.30;;;;;;;;;;5061379;22;20410;-75
2022/07/18 12:05:52;;;;;;;1.88;1.13;;;;;;;;;;5055050;28;20049;-76
2022/07/18 12:08:45;;;;;;;2.25;1.30;;;;;;;;;;5054331;28;20482;-75
2022/07/18 12:11:36;;;;;;;2.13;1.10;;;;;;;;;;5054439;28;20045;-76
2022/07/18 12:14:22;;;;;;;2.85;1.20;;;;;;;;;;5054981;28;20390;-76
2022/07/18 12:17:08;;;;;;;2.58;1.10;;;;;;;;;;5053841;28;20045;-77
2022/07/18 12:20:12;;;;;;;1.75;1.10;;;;;;;;;;5054840;28;20487;-76
2022/07/18 12:23:10;;;;;;;;;;;;;;;;;;5054914;28;20040;-76
2022/07/18 12:25:57;;;;;;;2.78;1.30;;;;;;;;;;5054247;28;19913;-76
2022/07/18 12:28:42;;;;;;;8.13;1.30;;;;;;;;;;5054416;28;20044;-76
2022/07/18 12:31:38;;;;;;;5.72;1.25;;;;;;;;;;5053212;28;20049;-75
2022/07/18 12:34:23;;;;;;;2.53;1.40;;;;;;;;;;5054215;28;20045;-75
2022/07/18 12:37:10;;;;;;;1.85;1.00;;;;;;;;;;5053964;28;20072;-76
2022/07/18 12:40:04;;;;;;;1.90;1.20;;;;;;;;;;5053801;28;20057;-76
2022/07/18 12:43:02;;;;;;;1.65;1.20;;;;;;;;;;5060971;28;20052;-76
2022/07/18 12:45:46;;;;;;;3.78;1.10;;;;;;;;;;5059883;28;20387;-76
2022/07/18 12:48:33;;;;;;;2.55;1.25;;;;;;;;;;5053253;28;20410;-75
2022/07/18 12:51:19;;;;;;;1.67;1.02;;;;;;;;;;5053875;28;20052;-75
2022/07/18 12:54:04;;;;;;;5.00;1.00;;;;;;;;;;5053765;28;20041;-77
2022/07/18 12:56:50;;;;;;;4.28;1.20;;;;;;;;;;5053553;28;20053;-75
2022/07/18 12:59:35;;;;;;;2.88;1.10;;;;;;;;;;5053931;28;20049;-75
2022/07/18 13:02:21;;;;;;;2.03;1.20;;;;;;;;;;5052746;28;20045;-76
2022/07/18 13:05:07;;;;;;;2.05;1.13;;;;;;;;;;5053505;28;20037;-75
2022/07/18 13:07:52;;;;;;;1.80;1.23;;;;;;;;;;5053503;28;20045;-75
2022/07/18 13:10:38;;;;;;;3.95;1.13;;;;;;;;;;5059690;28;20414;-75
2022/07/18 13:13:24;;;;;;;2.70;1.30;;;;;;;;;;5053342;28;20044;-77
2022/07/18 13:16:09;;;;;;;2.78;1.20;;;;;;;;;;5059844;28;20530;-77
2022/07/18 13:18:54;;;;;;;2.63;1.17;;;;;;;;;;5053116;28;20041;-76
2022/07/18 13:21:41;;;;;;;2.70;1.08;;;;;;;;;;5053374;28;20052;-76
2022/07/18 13:24:27;;;;;;;2.65;1.38;;;;;;;;;;5052841;28;20490;-76
2022/07/18 13:27:12;;;;;;;3.03;1.30;;;;;;;;;;5053422;28;20044;-75
2022/07/18 13:29:58;;;;;;;1.25;1.10;;;;;;;;;;5052972;28;20497;-76
2022/07/18 13:32:45;;;;;;;1.67;1.02;;;;;;;;;;5059546;28;20405;-75
2022/07/18 13:35:30;;;;;;;3.92;1.10;;;;;;;;;;5059898;28;20053;-76
2022/07/18 13:38:16;;;;;;;0.90;0.90;;;;;;;;;;5062298;22;20529;-76
2022/07/18 13:41:01;;;;;;;3.97;1.20;;;;;;;;;;5060532;28;20398;-76
2022/07/18 13:43:47;;;;;;;3.30;1.50;;;;;;;;;;5057462;28;20045;-77
2022/07/18 13:46:32;;;;;;;1.75;1.40;;;;;;;;;;5056995;28;20056;-76
2022/07/18 13:49:18;;;;;;;2.00;1.30;;;;;;;;;;5057008;28;20398;-76
2022/07/18 13:52:05;;;;;;;2.38;1.30;;;;;;;;;;5056472;28;20048;-76
2022/07/18 13:54:53;;;;;;;5.25;1.17;;;;;;;;;;5057302;28;20053;-76
2022/07/18 13:57:39;;;;;;;3.08;1.20;;;;;;;;;;5064148;28;20041;-77
2022/07/18 14:00:25;;;;;;;9.35;1.70;;;;;;;;;;5056480;28;20041;-75
2022/07/18 14:03:10;;;;;;;1.73;1.20;;;;;;;;;;5056590;28;20049;-77
2022/07/18 14:05:56;;;;;;;2.22;1.10;;;;;;;;;;5063065;28;20044;-76
2022/07/18 14:08:41;;;;;;;2.03;1.08;;;;;;;;;;5055331;28;20045;-76
2022/07/18 14:11:27;;;;;;;4.88;1.40;;;;;;;;;;5057734;28;20044;-76
2022/07/18 14:14:12;;;;;;;1.73;1.30;;;;;;;;;;5056232;28;20045;-77
2022/07/18 14:16:58;;;;;;;2.20;1.20;;;;;;;;;;5056267;28;20049;-76
2022/07/18 14:19:43;;;;;;;4.20;1.52;;;;;;;;;;5055681;28;20048;-76
2022/07/18 14:22:29;;;;;;;3.63;1.40;;;;;;;;;;5056752;28;20044;-74
2022/07/18 14:25:17;;;;;;;2.88;1.48;;;;;;;;;;5063134;28;20045;-76
2022/07/18 14:28:02;;;;;;;2.42;1.30;;;;;;;;;;5056605;28;20482;-76
2022/07/18 14:30:48;;;;;;;5.40;1.67;;;;;;;;;;5056038;28;20045;-76
2022/07/18 14:33:33;;;;;;;4.47;1.60;;;;;;;;;;5056557;28;20391;-77
2022/07/18 14:36:19;;;;;;;7.90;1.27;;;;;;;;;;5062610;28;20041;-76
2022/07/18 14:39:04;;;;;;;2.00;1.20;;;;;;;;;;5056679;28;20053;-75
2022/07/18 14:41:50;;;;;;;2.72;1.33;;;;;;;;;;5056137;28;20053;-75
2022/07/18 14:44:36;;;;;;;2.63;1.40;;;;;;;;;;5062536;28;20045;-78
2022/07/18 14:47:22;;;;;;;3.65;1.42;;;;;;;;;;5068073;22;20057;-78
2022/07/18 14:50:07;;;;;;;3.40;1.45;;;;;;;;;;5055674;28;20406;-76
2022/07/18 14:52:52;;;;;;;1.75;1.30;;;;;;;;;;5054570;28;20475;-76
2022/07/18 14:55:38;;;;;;;2.47;1.40;;;;;;;;;;5055405;28;20048;-77
2022/07/18 14:58:23;;;;;;;2.65;1.40;;;;;;;;;;5062317;28;20502;-76
2022/07/18 15:01:09;;;;;;;2.75;1.38;;;;;;;;;;5055887;28;20044;-76
2022/07/18 15:03:55;;;;;;;1.80;1.25;;;;;;;;;;5055371;28;20049;-77
2022/07/18 15:06:40;;;;;;;2.78;1.50;;;;;;;;;;5055750;28;20052;-76
2022/07/18 15:09:26;;;;;;;3.63;1.60;;;;;;;;;;5054976;28;20045;-76
2022/07/18 15:12:11;;;;;;;8.02;1.40;;;;;;;;;;5055901;28;20041;-76
2022/07/18 15:14:58;;;;;;;1.75;1.40;;;;;;;;;;5055664;28;20493;-76
2022/07/18 15:17:44;;;;;;;3.15;1.63;;;;;;;;;;5061525;28;20048;-75
2022/07/18 15:20:29;;;;;;;2.33;1.40;;;;;;;;;;5055480;28;20045;-75
2022/07/18 15:23:15;;;;;;;2.92;1.30;;;;;;;;;;5055155;28;20466;-75
2022/07/18 15:26:00;;;;;;;6.70;2.22;;;;;;;;;;5055284;28;20386;-76
2022/07/18 15:28:46;;;;;;;2.85;1.30;;;;;;;;;;5055263;28;20033;-77
2022/07/18 15:31:32;;;;;;;3.50;1.50;;;;;;;;;;5054718;28;20049;-76
2022/07/18 15:34:17;;;;;;;3.10;1.52;;;;;;;;;;5055151;28;20048;-76
2022/07/18 15:37:03;;;;;;;2.90;1.50;;;;;;;;;;5062284;28;20041;-76
2022/07/18 15:39:49;;;;;;;8.20;3.63;;;;;;;;;;5061484;28;20049;-76
2022/07/18 15:42:35;;;;;;;5.25;3.40;;;;;;;;;;5055828;28;20049;-76
2022/07/18 15:45:21;;;;;;;4.60;1.90;;;;;;;;;;5055119;28;20049;-77
2022/07/18 15:48:06;;;;;;;2.20;1.70;;;;;;;;;;5058053;28;20048;-76
2022/07/18 15:50:52;;;;;;;2.92;1.90;;;;;;;;;;5055096;28;20100;-77
2022/07/18 15:53:38;;;;;;;3.08;1.80;;;;;;;;;;5054661;28;20041;-76
2022/07/18 15:56:23;;;;;;;7.63;2.10;;;;;;;;;;5054906;28;20045;-76
2022/07/18 15:59:08;;;;;;;2.38;1.88;;;;;;;;;;5040230;28;20049;-76
2022/07/18 16:01:55;;;;;;;6.38;1.70;;;;;;;;;;5054453;28;20049;-76
2022/07/18 16:04:40;;;;;;;3.03;1.60;;;;;;;;;;5045444;28;20041;-76
2022/07/18 16:07:26;;;;;;;6.10;3.40;;;;;;;;;;5054565;28;20052;-79
2022/07/18 16:10:12;;;;;;;3.08;1.60;;;;;;;;;;5046130;28;20049;-77
2022/07/18 16:12:57;;;;;;;7.10;2.75;;;;;;;;;;5054631;28;20040;-79
2022/07/18 16:15:43;;;;;;;3.55;1.88;;;;;;;;;;5054077;28;20048;-82
2022/07/18 16:18:29;;;;;;;4.15;1.75;;;;;;;;;;5039970;28;20060;-82
2022/07/18 16:21:14;;;;;;;3.17;2.00;;;;;;;;;;5039492;28;20041;-80
2022/07/18 16:24:00;;;;;;;7.65;2.90;;;;;;;;;;5053672;28;20044;-80
2022/07/18 16:26:45;;;;;;;5.25;3.40;;;;;;;;;;5054244;28;20041;-81
2022/07/18 16:29:31;;;;;;;4.43;2.00;;;;;;;;;;5053683;28;20048;-81
2022/07/18 16:32:16;;;;;;;2.38;1.83;;;;;;;;;;5061311;22;20045;-82
2022/07/18 16:35:02;;;;;;;6.45;2.50;;;;;;;;;;5054084;28;20399;-79
2022/07/18 16:37:48;;;;;;;8.27;2.42;;;;;;;;;;5054299;28;20048;-80